ASP weather

Alice Springs Airport
Alice Springs, Northern Territory, Australia

Public forecast

Using degrees Celsius for public forecast. Weather courtesy of forecast.io.

METAR (pilot weather report)

Retrieved 2018/02/21 13:00 UTC (10 minutes ago):

YBAS 211300Z AUTO 23004KT 210V270 9999 // NCD 32/14 Q1006 RF00.0/000.2

TAF (pilot weather forecast)

Retrieved 2018/02/21 12:00 UTC (1 hour ago):

TAF YBAS 211110Z 2112/2212 30008KT CAVOK FM211400 22008KT CAVOK PROB30 TEMPO 2112/2115 VRB20G40KT 2000 TSRA SCT040 SCT060CB